createdAt,value
2022-09-15T00:02:21.609Z,11.64
2022-09-15T00:04:48.278Z,11.62
2022-09-15T00:07:14.927Z,11.67
2022-09-15T00:09:42.613Z,11.72
2022-09-15T00:12:09.262Z,11.76
2022-09-15T00:14:35.871Z,11.77
2022-09-15T00:17:02.525Z,11.81
2022-09-15T00:19:29.104Z,11.82
2022-09-15T00:21:55.637Z,11.89
2022-09-15T00:24:22.186Z,11.90
2022-09-15T00:26:48.781Z,11.90
2022-09-15T00:29:15.345Z,11.89
2022-09-15T00:31:41.923Z,11.88
2022-09-15T00:34:11.989Z,11.94
2022-09-15T00:36:38.576Z,11.85
2022-09-15T00:39:05.428Z,11.83
2022-09-15T00:41:31.996Z,11.80
2022-09-15T00:44:16.803Z,11.83
2022-09-15T00:46:58.884Z,11.85
2022-09-15T00:49:35.005Z,11.85
2022-09-15T00:52:04.563Z,11.85
2022-09-15T00:54:44.596Z,11.83
2022-09-15T00:57:22.145Z,11.81
2022-09-15T00:59:49.714Z,11.80
2022-09-15T01:02:18.215Z,11.79
2022-09-15T01:04:45.027Z,11.78
2022-09-15T01:07:13.885Z,11.74
2022-09-15T01:09:49.155Z,11.73
2022-09-15T01:12:16.023Z,11.73
2022-09-15T01:14:42.545Z,11.71
2022-09-15T01:17:32.147Z,11.71
2022-09-15T01:20:19.104Z,11.71
2022-09-15T01:23:06.123Z,11.71
2022-09-15T01:25:51.473Z,11.64
2022-09-15T01:28:45.575Z,11.45
2022-09-15T01:31:59.820Z,11.31
2022-09-15T01:34:26.820Z,11.12
2022-09-15T01:36:57.819Z,10.96
2022-09-15T01:39:28.360Z,10.91
2022-09-15T01:41:57.737Z,10.81
2022-09-15T01:44:26.832Z,10.70
2022-09-15T01:46:57.153Z,10.65
2022-09-15T01:49:26.884Z,10.62
2022-09-15T01:51:54.420Z,10.50
2022-09-15T01:54:28.383Z,10.47
2022-09-15T01:56:54.939Z,10.45
2022-09-15T01:59:21.569Z,10.32
2022-09-15T02:02:12.685Z,10.38
2022-09-15T02:04:52.911Z,10.31
2022-09-15T02:07:32.014Z,10.27
2022-09-15T02:10:11.530Z,10.29
2022-09-15T02:12:41.793Z,10.27
2022-09-15T02:15:14.989Z,10.29
2022-09-15T02:17:43.841Z,10.36
2022-09-15T02:20:18.374Z,10.48
2022-09-15T02:22:49.061Z,10.54
2022-09-15T02:25:19.593Z,10.57
2022-09-15T02:27:49.946Z,10.64
2022-09-15T02:30:18.141Z,10.63
2022-09-15T02:32:49.135Z,10.63
2022-09-15T02:35:17.102Z,10.69
2022-09-15T02:37:43.813Z,10.66
2022-09-15T02:40:10.614Z,10.60
2022-09-15T02:42:37.278Z,10.52
2022-09-15T02:45:04.410Z,10.43
2022-09-15T02:47:32.096Z,10.36
2022-09-15T02:49:58.650Z,10.22
2022-09-15T02:52:25.851Z,10.05
2022-09-15T02:54:52.390Z,9.98
2022-09-15T02:57:19.007Z,9.91
2022-09-15T03:00:04.172Z,9.87
2022-09-15T03:02:31.153Z,9.85
2022-09-15T03:04:57.927Z,9.81
2022-09-15T03:07:24.996Z,9.72
2022-09-15T03:09:51.694Z,9.68
2022-09-15T03:12:18.341Z,9.60
2022-09-15T03:14:44.879Z,9.56
2022-09-15T03:17:11.444Z,9.54
2022-09-15T03:19:38.232Z,9.52
2022-09-15T03:22:05.055Z,9.49
2022-09-15T03:24:31.566Z,9.48
2022-09-15T03:26:58.109Z,9.46
2022-09-15T03:29:24.740Z,9.45
2022-09-15T03:31:51.731Z,9.40
2022-09-15T03:34:18.432Z,9.37
2022-09-15T03:36:44.988Z,9.33
2022-09-15T03:39:12.007Z,9.30
2022-09-15T03:41:38.697Z,9.31
2022-09-15T03:44:05.348Z,9.29
2022-09-15T03:46:31.996Z,9.20
2022-09-15T03:48:58.550Z,9.20
2022-09-15T03:51:25.249Z,9.18
2022-09-15T03:53:51.934Z,9.13
2022-09-15T03:56:28.409Z,9.07
2022-09-15T03:58:54.996Z,9.03
2022-09-15T04:01:21.897Z,8.97
2022-09-15T04:03:51.162Z,9.01
2022-09-15T04:06:20.027Z,9.09
2022-09-15T04:08:46.984Z,9.00
2022-09-15T04:11:14.367Z,9.04
2022-09-15T04:13:42.105Z,8.99
2022-09-15T04:16:14.319Z,8.96
2022-09-15T04:18:41.161Z,8.96
2022-09-15T04:21:13.371Z,8.92
2022-09-15T04:23:40.772Z,8.88
2022-09-15T04:26:11.855Z,8.89
2022-09-15T04:28:39.140Z,8.88
2022-09-15T04:31:10.903Z,8.91
2022-09-15T04:33:38.898Z,8.92
2022-09-15T04:36:08.336Z,8.90
2022-09-15T04:38:35.919Z,8.88
2022-09-15T04:41:04.097Z,8.87
2022-09-15T04:43:31.123Z,8.84
2022-09-15T04:45:57.718Z,8.80
2022-09-15T04:48:24.789Z,8.78
2022-09-15T04:50:51.469Z,8.81
2022-09-15T04:53:18.138Z,8.87
2022-09-15T04:55:44.772Z,9.00
2022-09-15T04:58:11.442Z,9.07
2022-09-15T05:00:45.911Z,9.17
2022-09-15T05:03:14.300Z,9.24
2022-09-15T05:05:41.173Z,9.30
2022-09-15T05:08:08.280Z,9.38
2022-09-15T05:10:35.060Z,9.46
2022-09-15T05:13:01.603Z,9.49
2022-09-15T05:15:28.101Z,9.51
2022-09-15T05:17:54.721Z,9.50
2022-09-15T05:20:21.278Z,9.58
2022-09-15T05:22:47.836Z,9.54
2022-09-15T05:25:14.389Z,9.59
2022-09-15T05:27:40.955Z,9.71
2022-09-15T05:30:35.869Z,9.79
2022-09-15T05:32:54.641Z,9.89
2022-09-15T05:35:21.275Z,9.97
2022-09-15T05:37:47.904Z,10.11
2022-09-15T05:40:15.397Z,10.16
2022-09-15T05:42:41.979Z,10.20
2022-09-15T05:45:08.987Z,10.36
2022-09-15T05:47:35.475Z,10.42
2022-09-15T05:50:02.076Z,10.52
2022-09-15T05:52:28.601Z,10.57
2022-09-15T05:54:58.985Z,10.65
2022-09-15T05:57:25.875Z,10.68
2022-09-15T05:59:52.496Z,10.74
2022-09-15T06:02:19.119Z,10.78
2022-09-15T06:04:45.743Z,10.85
2022-09-15T06:07:12.553Z,10.93
2022-09-15T06:09:39.499Z,11.00
2022-09-15T06:12:06.202Z,11.08
2022-09-15T06:14:32.743Z,11.13
2022-09-15T06:16:59.298Z,11.29
2022-09-15T06:19:25.835Z,11.34
2022-09-15T06:21:54.168Z,11.43
2022-09-15T06:24:21.676Z,11.52
2022-09-15T06:26:48.176Z,11.69
2022-09-15T06:29:14.724Z,11.73
2022-09-15T06:31:41.610Z,11.79
2022-09-15T06:34:09.413Z,11.89
2022-09-15T06:36:37.744Z,11.96
2022-09-15T06:39:04.922Z,11.98
2022-09-15T06:41:52.606Z,12.06
2022-09-15T06:44:21.409Z,12.08
2022-09-15T06:46:48.442Z,12.25
2022-09-15T06:49:15.026Z,12.40
2022-09-15T06:51:42.093Z,12.58
2022-09-15T06:54:08.696Z,12.64
2022-09-15T06:56:38.049Z,12.70
2022-09-15T06:59:05.116Z,12.72
2022-09-15T07:01:32.514Z,12.88
2022-09-15T07:04:01.038Z,12.85
2022-09-15T07:06:29.237Z,12.91
2022-09-15T07:08:56.721Z,12.91
2022-09-15T07:11:23.247Z,12.95
2022-09-15T07:13:50.160Z,12.96
2022-09-15T07:16:18.231Z,12.99
2022-09-15T07:18:45.711Z,13.03
2022-09-15T07:21:15.212Z,13.16
2022-09-15T07:23:42.293Z,13.25
2022-09-15T07:26:08.865Z,13.33
2022-09-15T07:28:35.597Z,13.40
2022-09-15T07:31:02.673Z,13.47
2022-09-15T07:33:29.224Z,13.49
2022-09-15T07:35:55.802Z,13.55
2022-09-15T07:38:22.414Z,13.68
2022-09-15T07:40:49.358Z,13.86
2022-09-15T07:43:16.540Z,13.95
2022-09-15T07:45:43.136Z,13.87
2022-09-15T07:48:09.685Z,13.87
2022-09-15T07:50:36.238Z,13.84
2022-09-15T07:53:02.771Z,14.04
2022-09-15T07:55:30.436Z,14.22
2022-09-15T07:57:58.677Z,14.32
2022-09-15T08:00:25.564Z,14.00
2022-09-15T08:02:52.654Z,14.04
2022-09-15T08:05:19.233Z,14.13
2022-09-15T08:07:45.780Z,14.16
2022-09-15T08:10:12.365Z,14.34
2022-09-15T08:12:38.972Z,14.45
2022-09-15T08:15:06.101Z,14.59
2022-09-15T08:17:32.631Z,14.77
2022-09-15T08:19:59.189Z,14.85
2022-09-15T08:22:25.720Z,14.78
2022-09-15T08:24:52.284Z,14.78
2022-09-15T08:27:18.834Z,14.53
2022-09-15T08:29:45.410Z,14.20
2022-09-15T08:32:12.065Z,14.26
2022-09-15T08:34:38.625Z,14.40
2022-09-15T08:37:05.236Z,14.46
2022-09-15T08:39:31.810Z,14.33
2022-09-15T08:42:00.226Z,14.36
2022-09-15T08:44:48.148Z,14.18
2022-09-15T08:47:24.353Z,14.03
2022-09-15T08:50:05.477Z,14.15
2022-09-15T08:52:42.319Z,14.60
2022-09-15T08:55:19.050Z,14.91
2022-09-15T08:57:45.680Z,15.12
2022-09-15T09:00:16.845Z,15.16
2022-09-15T09:02:56.118Z,15.44
2022-09-15T09:05:44.298Z,15.89
2022-09-15T09:08:48.396Z,16.40
2022-09-15T09:11:24.077Z,16.62
2022-09-15T09:13:59.167Z,16.73
2022-09-15T09:17:04.334Z,16.64
2022-09-15T09:20:19.248Z,16.45
2022-09-15T09:22:47.561Z,16.37
2022-09-15T09:25:26.714Z,16.29
2022-09-15T09:27:54.397Z,16.26
2022-09-15T09:30:23.700Z,16.56
2022-09-15T09:32:57.791Z,16.58
2022-09-15T09:35:45.047Z,16.90
2022-09-15T09:38:19.712Z,17.32
2022-09-15T09:40:46.907Z,17.51
2022-09-15T09:43:13.515Z,17.70
2022-09-15T09:45:40.136Z,17.93
2022-09-15T09:48:15.381Z,17.84
2022-09-15T09:50:45.332Z,17.31
2022-09-15T09:53:19.685Z,16.94
2022-09-15T09:55:46.554Z,16.65
2022-09-15T09:58:18.523Z,16.53
2022-09-15T10:00:45.734Z,16.45
2022-09-15T10:03:15.614Z,16.35
2022-09-15T10:05:43.200Z,16.31
2022-09-15T10:08:20.332Z,16.27
2022-09-15T10:10:52.069Z,16.42
2022-09-15T10:13:18.952Z,16.54
2022-09-15T10:15:52.117Z,17.09
2022-09-15T10:18:38.968Z,17.32
2022-09-15T10:21:08.486Z,17.38
2022-09-15T10:23:35.688Z,17.51
2022-09-15T10:26:40.924Z,17.31
2022-09-15T10:29:16.374Z,17.85
2022-09-15T10:31:44.585Z,18.59
2022-09-15T10:34:25.867Z,19.21
2022-09-15T10:37:20.653Z,19.41
2022-09-15T10:39:54.233Z,19.73
2022-09-15T10:42:47.715Z,19.73
2022-09-15T10:45:18.970Z,19.42
2022-09-15T10:48:03.742Z,19.27
2022-09-15T10:50:43.373Z,18.96
2022-09-15T10:53:28.861Z,18.56
2022-09-15T10:56:30.903Z,18.78
2022-09-15T10:59:06.543Z,19.17
2022-09-15T11:01:58.252Z,20.47
2022-09-15T11:04:43.095Z,21.91
2022-09-15T11:07:28.074Z,22.83
2022-09-15T11:10:11.387Z,21.92
2022-09-15T11:12:41.439Z,22.33
2022-09-15T11:15:20.358Z,21.94
2022-09-15T11:18:10.433Z,21.96
2022-09-15T11:20:39.652Z,21.38
2022-09-15T11:23:29.203Z,20.47
2022-09-15T11:26:10.342Z,19.93
2022-09-15T11:28:38.864Z,19.35
2022-09-15T11:31:19.544Z,18.86
2022-09-15T11:33:58.972Z,18.46
2022-09-15T11:36:34.532Z,18.04
2022-09-15T11:39:13.544Z,17.44
2022-09-15T11:41:49.599Z,17.01
2022-09-15T11:44:19.096Z,16.62
2022-09-15T11:47:19.333Z,16.31
2022-09-15T11:50:18.503Z,16.13
2022-09-15T11:52:57.300Z,16.14
2022-09-15T11:55:45.753Z,16.45
2022-09-15T11:58:22.465Z,16.96
2022-09-15T12:01:12.336Z,17.37
2022-09-15T12:03:50.624Z,17.53
2022-09-15T12:06:35.012Z,17.41
2022-09-15T12:09:04.470Z,17.24
2022-09-15T12:11:57.808Z,16.89
2022-09-15T12:14:39.573Z,16.47
2022-09-15T12:17:09.729Z,15.94
2022-09-15T12:20:00.921Z,15.25
2022-09-15T12:22:43.021Z,14.61
2022-09-15T12:25:15.298Z,14.46
2022-09-15T12:27:41.908Z,14.35
2022-09-15T12:30:37.754Z,14.29
2022-09-15T12:33:42.378Z,14.29
2022-09-15T12:36:30.952Z,14.30
2022-09-15T12:38:58.544Z,14.25
2022-09-15T12:41:25.165Z,14.22
2022-09-15T12:43:57.672Z,14.20
2022-09-15T12:46:24.719Z,14.19
2022-09-15T12:48:51.775Z,14.19
2022-09-15T12:51:23.694Z,14.24
2022-09-15T12:54:02.797Z,14.06
2022-09-15T12:56:31.256Z,14.03
2022-09-15T12:59:06.525Z,14.02
2022-09-15T13:01:48.595Z,14.11
2022-09-15T13:04:41.442Z,14.10
2022-09-15T13:07:20.171Z,14.16
2022-09-15T13:09:57.006Z,14.15
2022-09-15T13:12:29.565Z,14.31
2022-09-15T13:14:56.909Z,14.51
2022-09-15T13:17:25.606Z,14.65
2022-09-15T13:19:59.469Z,14.87
2022-09-15T13:22:37.785Z,15.15
2022-09-15T13:25:14.686Z,15.42
2022-09-15T13:27:50.726Z,15.60
2022-09-15T13:30:32.838Z,15.84
2022-09-15T13:40:00.617Z,16.62
2022-09-15T13:42:58.110Z,17.13
2022-09-15T13:45:35.799Z,17.54
2022-09-15T13:48:14.341Z,17.95
2022-09-15T13:50:45.160Z,18.17
2022-09-15T13:53:24.356Z,18.28
2022-09-15T13:55:53.718Z,18.21
2022-09-15T14:01:08.746Z,17.99
2022-09-15T14:03:39.125Z,18.58
2022-09-15T14:06:13.251Z,19.03
2022-09-15T14:08:40.408Z,18.48
2022-09-15T14:11:13.510Z,18.02
2022-09-15T14:13:45.522Z,17.76
2022-09-15T14:16:35.973Z,17.53
2022-09-15T14:19:33.784Z,17.29
2022-09-15T14:22:29.634Z,17.42
2022-09-15T14:24:57.650Z,17.21
2022-09-15T14:27:26.998Z,17.24
2022-09-15T14:29:55.452Z,17.13
2022-09-15T14:32:22.160Z,16.90
2022-09-15T14:34:49.143Z,16.77
2022-09-15T14:37:24.067Z,16.59
2022-09-15T14:39:54.830Z,16.30
2022-09-15T14:42:31.152Z,16.21
2022-09-15T14:48:15.717Z,15.82
2022-09-15T14:50:43.738Z,15.79
2022-09-15T14:53:13.745Z,15.79
2022-09-15T14:56:12.850Z,15.88
2022-09-15T14:58:50.528Z,15.88
2022-09-15T15:01:21.128Z,15.77
2022-09-15T15:03:53.338Z,15.70
2022-09-15T15:06:29.661Z,15.60
2022-09-15T15:09:18.017Z,15.34
2022-09-15T15:11:44.729Z,15.18
2022-09-15T15:14:12.675Z,15.02
2022-09-15T15:16:50.269Z,14.89
2022-09-15T15:19:39.253Z,14.76
2022-09-15T15:22:11.982Z,14.69
2022-09-15T15:24:47.498Z,14.51
2022-09-15T15:27:32.454Z,14.49
2022-09-15T15:30:32.226Z,14.41
2022-09-15T15:33:19.739Z,14.30
2022-09-15T15:35:46.785Z,14.30
2022-09-15T15:38:18.210Z,14.30
2022-09-15T15:40:45.175Z,14.24
2022-09-15T15:43:23.901Z,14.39
2022-09-15T15:45:58.485Z,14.31
2022-09-15T15:48:26.625Z,14.12
2022-09-15T15:50:53.545Z,14.04
2022-09-15T15:53:20.187Z,14.06
2022-09-15T15:55:47.158Z,14.08
2022-09-15T15:58:14.654Z,14.11
2022-09-15T16:00:47.510Z,14.06
2022-09-15T16:03:15.388Z,14.07
2022-09-15T16:05:45.047Z,14.15
2022-09-15T16:08:25.065Z,14.09
2022-09-15T16:10:52.480Z,14.06
2022-09-15T16:13:20.448Z,14.15
2022-09-15T16:15:47.296Z,14.11
2022-09-15T16:18:14.204Z,14.08
2022-09-15T16:20:41.403Z,14.04
2022-09-15T16:23:12.991Z,13.97
2022-09-15T16:25:48.208Z,13.94
2022-09-15T16:28:14.787Z,13.85
2022-09-15T16:30:41.496Z,13.81
2022-09-15T16:33:12.739Z,13.82
2022-09-15T16:35:40.249Z,13.97
2022-09-15T16:38:07.444Z,13.92
2022-09-15T16:40:34.200Z,13.90
2022-09-15T16:43:00.935Z,13.78
2022-09-15T16:45:30.637Z,13.73
2022-09-15T16:47:57.247Z,13.64
2022-09-15T16:50:23.899Z,13.53
2022-09-15T16:52:50.672Z,13.34
2022-09-15T16:55:31.313Z,13.15
2022-09-15T16:57:59.792Z,13.10
2022-09-15T17:00:27.960Z,12.99
2022-09-15T17:02:54.596Z,12.93
2022-09-15T17:05:47.821Z,12.86
2022-09-15T17:08:15.211Z,12.79
2022-09-15T17:10:42.082Z,12.77
2022-09-15T17:13:09.256Z,12.71
2022-09-15T17:15:38.407Z,12.70
2022-09-15T17:18:06.399Z,12.64
2022-09-15T17:20:38.526Z,12.55
2022-09-15T17:23:31.136Z,12.54
2022-09-15T17:25:59.792Z,12.49
2022-09-15T17:28:31.269Z,12.47
2022-09-15T17:31:02.714Z,12.53
2022-09-15T17:33:31.234Z,12.47
2022-09-15T17:35:58.732Z,12.44
2022-09-15T17:38:25.677Z,12.37
2022-09-15T17:40:52.703Z,12.37
2022-09-15T17:43:21.389Z,12.28
2022-09-15T17:45:49.468Z,12.28
2022-09-15T17:48:16.441Z,12.26
2022-09-15T17:50:43.760Z,12.21
2022-09-15T17:53:13.473Z,12.15
2022-09-15T17:55:40.217Z,12.04
2022-09-15T17:58:07.011Z,11.94
2022-09-15T18:00:36.429Z,11.96
2022-09-15T18:03:06.016Z,11.89
2022-09-15T18:05:35.283Z,11.71
2022-09-15T18:08:03.949Z,11.59
2022-09-15T18:10:32.413Z,11.48
2022-09-15T18:12:59.354Z,11.36
2022-09-15T18:15:31.433Z,11.17
2022-09-15T18:18:00.601Z,11.12
2022-09-15T18:20:29.094Z,11.02
2022-09-15T18:22:56.378Z,10.99
2022-09-15T18:25:28.271Z,10.95
2022-09-15T18:27:55.377Z,10.91
2022-09-15T18:30:23.872Z,10.93
2022-09-15T18:32:50.632Z,10.92
2022-09-15T18:35:19.465Z,10.90
2022-09-15T18:37:47.056Z,10.90
2022-09-15T18:40:16.155Z,10.86
2022-09-15T18:42:43.054Z,10.89
2022-09-15T18:45:12.472Z,10.98
2022-09-15T18:47:40.964Z,11.01
2022-09-15T18:50:08.489Z,10.93
2022-09-15T18:52:36.749Z,10.91
2022-09-15T18:55:05.226Z,10.81
2022-09-15T18:57:39.681Z,10.80
2022-09-15T19:00:09.632Z,10.83
2022-09-15T19:02:36.710Z,10.80
2022-09-15T19:05:03.863Z,10.83
2022-09-15T19:07:30.443Z,10.81
2022-09-15T19:09:57.184Z,10.78
2022-09-15T19:12:23.850Z,10.72
2022-09-15T19:14:50.759Z,10.75
2022-09-15T19:17:17.495Z,10.64
2022-09-15T19:19:46.323Z,10.68
2022-09-15T19:22:13.060Z,10.72
2022-09-15T19:24:39.679Z,10.79
2022-09-15T19:27:08.100Z,10.82
2022-09-15T19:29:36.426Z,10.83
2022-09-15T19:32:08.730Z,10.93
2022-09-15T19:34:37.020Z,10.92
2022-09-15T19:37:08.055Z,10.89
2022-09-15T19:39:37.416Z,11.01
2022-09-15T19:42:05.568Z,11.06
2022-09-15T19:44:32.231Z,11.06
2022-09-15T19:46:58.997Z,11.05
2022-09-15T19:49:26.575Z,10.93
2022-09-15T19:51:55.520Z,10.91
2022-09-15T19:54:23.485Z,10.87
2022-09-15T19:56:50.260Z,10.76
2022-09-15T19:59:17.006Z,10.72
2022-09-15T20:01:43.579Z,10.76
2022-09-15T20:04:10.708Z,10.73
2022-09-15T20:06:37.525Z,10.74
2022-09-15T20:09:05.183Z,10.71
2022-09-15T20:11:31.834Z,10.79
2022-09-15T20:13:58.934Z,10.78
2022-09-15T20:16:25.877Z,10.80
2022-09-15T20:18:53.998Z,10.70
2022-09-15T20:21:49.398Z,10.66
2022-09-15T20:24:17.885Z,10.58
2022-09-15T20:26:44.430Z,10.46
2022-09-15T20:29:11.416Z,10.39
2022-09-15T20:31:38.196Z,10.27
2022-09-15T20:34:04.836Z,10.32
2022-09-15T20:36:35.536Z,10.25
2022-09-15T20:39:03.889Z,10.24
2022-09-15T20:41:33.636Z,10.29
2022-09-15T20:44:00.604Z,10.37
2022-09-15T20:46:29.362Z,10.27
2022-09-15T20:48:55.940Z,10.30
2022-09-15T20:51:25.647Z,10.32
2022-09-15T20:53:54.354Z,10.25
2022-09-15T20:56:25.027Z,10.29
2022-09-15T20:58:58.912Z,10.22
2022-09-15T21:01:34.234Z,10.18
2022-09-15T21:04:01.032Z,10.17
2022-09-15T21:06:28.237Z,10.06
2022-09-15T21:08:56.136Z,10.05
2022-09-15T21:11:24.103Z,9.97
2022-09-15T21:13:51.745Z,9.95
2022-09-15T21:16:21.148Z,10.00
2022-09-15T21:18:48.551Z,9.99
2022-09-15T21:21:16.071Z,10.00
2022-09-15T21:23:45.485Z,10.02
2022-09-15T21:26:26.493Z,10.13
2022-09-15T21:28:54.553Z,10.17
2022-09-15T21:31:23.573Z,10.17
2022-09-15T21:33:51.276Z,10.19
2022-09-15T21:36:23.199Z,10.10
2022-09-15T21:38:51.679Z,9.85
2022-09-15T21:41:21.441Z,9.87
2022-09-15T21:43:48.669Z,9.82
2022-09-15T21:46:19.932Z,9.89
2022-09-15T21:48:47.374Z,9.88
2022-09-15T21:51:15.438Z,10.06
2022-09-15T21:53:43.068Z,10.08
2022-09-15T21:56:12.879Z,10.19
2022-09-15T21:58:43.009Z,10.30
2022-09-15T22:01:11.620Z,10.39
2022-09-15T22:03:42.250Z,10.38
2022-09-15T22:06:10.651Z,10.45
2022-09-15T22:08:38.321Z,10.45
2022-09-15T22:11:06.100Z,10.45
2022-09-15T22:13:32.855Z,10.42
2022-09-15T22:16:04.764Z,10.45
2022-09-15T22:18:31.679Z,10.37
2022-09-15T22:21:21.566Z,10.34
2022-09-15T22:23:49.339Z,10.34
2022-09-15T22:26:23.946Z,10.39
2022-09-15T22:28:50.492Z,10.41
2022-09-15T22:31:18.769Z,10.32
2022-09-15T22:33:45.943Z,10.37
2022-09-15T22:36:14.156Z,10.34
2022-09-15T22:38:40.823Z,10.32
2022-09-15T22:41:13.594Z,10.32
2022-09-15T22:43:41.553Z,10.26
2022-09-15T22:46:08.758Z,10.30
2022-09-15T22:48:38.580Z,10.32
2022-09-15T22:51:09.329Z,10.25
2022-09-15T22:53:35.965Z,10.11
2022-09-15T22:56:08.725Z,10.09
2022-09-15T22:58:35.897Z,9.96
2022-09-15T23:01:06.914Z,9.95
2022-09-15T23:03:33.822Z,9.82
2022-09-15T23:06:00.431Z,9.77
2022-09-15T23:08:27.164Z,9.71
2022-09-15T23:10:53.815Z,9.65
2022-09-15T23:13:20.380Z,9.64
2022-09-15T23:15:48.974Z,9.72
2022-09-15T23:18:15.805Z,9.77
2022-09-15T23:20:43.593Z,9.76
2022-09-15T23:23:10.549Z,9.78
2022-09-15T23:25:37.171Z,9.81
2022-09-15T23:28:03.733Z,9.80
2022-09-15T23:30:30.287Z,9.87
2022-09-15T23:32:57.677Z,9.85
2022-09-15T23:35:24.232Z,9.81
2022-09-15T23:37:51.055Z,9.81
2022-09-15T23:40:17.639Z,9.82
2022-09-15T23:42:44.213Z,9.92
2022-09-15T23:45:10.889Z,9.97
2022-09-15T23:47:37.489Z,9.94
2022-09-15T23:50:04.384Z,10.00
2022-09-15T23:52:31.063Z,9.92
2022-09-15T23:54:57.664Z,9.97
2022-09-15T23:57:24.291Z,9.88
2022-09-15T23:59:50.797Z,9.82
